createdAt,value
2022-10-18T14:36:19.293Z,27.83
2022-10-18T14:38:23.085Z,27.39
2022-10-18T14:40:42.894Z,28.13
2022-10-18T14:42:55.293Z,28.20
2022-10-18T14:44:57.024Z,28.20
2022-10-18T14:47:11.873Z,28.24
2022-10-18T14:49:22.336Z,28.20
2022-10-18T14:51:24.737Z,28.44
2022-10-18T14:53:35.909Z,28.04
2022-10-18T14:55:45.350Z,28.52
2022-10-18T14:57:47.304Z,28.47
2022-10-18T14:59:57.047Z,28.38
2022-10-18T15:02:08.337Z,28.45
2022-10-18T15:04:11.803Z,28.29
2022-10-18T15:06:22.351Z,28.39
2022-10-18T15:08:33.445Z,28.40
2022-10-18T15:10:35.584Z,28.06
2022-10-18T15:13:04.293Z,27.60
2022-10-18T15:15:09.358Z,27.37
2022-10-18T15:17:23.964Z,28.02
2022-10-18T15:19:39.508Z,28.20
2022-10-18T15:22:31.257Z,28.39
2022-10-18T15:24:26.893Z,28.23
2022-10-18T15:26:30.585Z,28.39
2022-10-18T15:28:46.407Z,28.07
2022-10-18T15:30:48.067Z,27.85
2022-10-18T15:32:52.732Z,27.59
2022-10-18T15:35:01.383Z,28.34
2022-10-18T15:37:16.690Z,27.51
2022-10-18T15:39:23.878Z,28.10
2022-10-18T15:41:50.413Z,28.17
2022-10-18T15:43:52.014Z,28.48
2022-10-18T15:46:00.061Z,28.19
2022-10-18T15:48:17.384Z,27.62
2022-10-18T15:50:35.474Z,27.87
2022-10-18T15:52:40.737Z,28.30
2022-10-18T15:56:56.653Z,27.24
2022-10-18T15:59:07.424Z,27.60
2022-10-18T16:01:22.712Z,26.38
2022-10-18T16:03:25.207Z,27.39
2022-10-18T16:05:33.434Z,27.52
2022-10-18T16:07:35.392Z,27.41
2022-10-18T16:09:37.612Z,27.03
2022-10-18T16:11:45.465Z,27.73
2022-10-18T16:13:47.456Z,27.76
2022-10-18T16:15:49.153Z,26.99
2022-10-18T16:17:57.442Z,27.19
2022-10-18T16:19:59.087Z,27.61
2022-10-18T16:22:05.978Z,27.75
2022-10-18T16:24:15.444Z,27.96
2022-10-18T16:26:19.142Z,27.61
2022-10-18T16:28:24.404Z,27.39
2022-10-18T16:30:39.484Z,27.83
2022-10-18T16:32:41.144Z,27.67
2022-10-18T16:34:42.748Z,27.44
2022-10-18T16:36:51.464Z,27.35
2022-10-18T16:38:55.443Z,27.77
2022-10-18T16:40:59.872Z,27.28
2022-10-18T16:43:08.470Z,26.88
2022-10-18T16:45:10.212Z,27.24
2022-10-18T16:47:18.505Z,26.31
2022-10-18T16:49:24.093Z,26.89
2022-10-18T16:51:26.836Z,27.15
2022-10-18T16:53:35.486Z,27.15
2022-10-18T16:55:38.498Z,27.12
2022-10-18T16:57:40.090Z,27.38
2022-10-18T16:59:48.479Z,27.56
2022-10-18T17:01:50.126Z,27.69
2022-10-18T17:03:52.882Z,28.07
2022-10-18T17:06:01.529Z,28.02
2022-10-18T17:08:03.143Z,27.47
2022-10-18T17:10:05.182Z,28.09
2022-10-18T17:12:13.502Z,27.92
2022-10-18T17:14:15.104Z,27.69
2022-10-18T17:16:19.678Z,27.62
2022-10-18T17:18:32.526Z,27.38
2022-10-18T17:20:34.124Z,26.81
2022-10-18T17:22:35.899Z,27.11
2022-10-18T17:24:44.527Z,27.16
2022-10-18T17:26:46.147Z,26.92
2022-10-18T17:28:53.053Z,26.90
2022-10-18T17:31:01.530Z,26.76
2022-10-18T17:33:03.195Z,27.08
2022-10-18T17:35:05.459Z,26.33
2022-10-18T17:37:14.558Z,26.82
2022-10-18T17:39:16.163Z,26.48
2022-10-18T17:41:17.817Z,27.24
2022-10-18T17:43:25.543Z,26.64
2022-10-18T17:45:27.330Z,26.92
2022-10-18T17:47:29.049Z,26.66
2022-10-18T17:49:37.561Z,26.88
2022-10-18T17:51:40.627Z,27.19
2022-10-18T17:53:42.557Z,26.82
2022-10-18T17:55:50.590Z,27.16
2022-10-18T17:57:52.299Z,26.82
2022-10-18T17:59:55.386Z,27.16
2022-10-18T18:02:03.568Z,26.46
2022-10-18T18:04:05.297Z,26.88
2022-10-18T18:06:17.237Z,27.04
2022-10-18T18:08:25.589Z,27.30
2022-10-18T18:10:27.307Z,26.47
2022-10-18T18:12:29.060Z,26.85
2022-10-18T18:14:37.596Z,26.26
2022-10-18T18:16:42.007Z,25.98
2022-10-18T18:18:44.133Z,26.36
2022-10-18T18:20:58.601Z,27.06
2022-10-18T18:23:00.781Z,26.74
2022-10-18T18:25:02.371Z,26.32
2022-10-18T18:27:10.611Z,26.84
2022-10-18T18:29:13.497Z,26.68
2022-10-18T18:31:18.179Z,26.17
2022-10-18T18:33:26.633Z,26.57
2022-10-18T18:35:28.248Z,26.69
2022-10-18T18:37:29.874Z,26.35
2022-10-18T18:39:41.641Z,26.68
2022-10-18T18:41:43.382Z,25.70
2022-10-18T18:43:49.809Z,26.47
2022-10-18T18:45:58.668Z,26.63
2022-10-18T18:48:00.271Z,26.50
2022-10-18T18:50:02.470Z,26.66
2022-10-18T18:52:10.662Z,25.54
2022-10-18T18:54:14.435Z,26.44
2022-10-18T18:56:19.065Z,25.33
2022-10-18T18:58:27.651Z,26.27
2022-10-18T19:00:29.254Z,26.92
2022-10-18T19:02:30.897Z,26.08
2022-10-18T19:04:39.677Z,26.66
2022-10-18T19:06:46.295Z,26.82
2022-10-18T19:08:49.044Z,25.96
2022-10-18T19:10:56.680Z,26.50
2022-10-18T19:12:58.577Z,26.60
2022-10-18T19:15:00.171Z,25.74
2022-10-18T19:17:08.699Z,26.46
2022-10-18T19:19:16.049Z,26.06
2022-10-18T19:21:18.143Z,26.50
2022-10-18T19:25:33.203Z,26.17
2022-10-18T19:27:35.599Z,26.50
2022-10-18T19:29:45.670Z,26.82
2022-10-18T19:31:48.471Z,25.85
2022-10-18T19:33:59.317Z,26.58
2022-10-18T19:36:07.694Z,26.37
2022-10-18T19:38:09.341Z,26.50
2022-10-18T19:40:11.201Z,26.47
2022-10-18T19:42:25.069Z,26.51
2022-10-18T19:44:30.510Z,26.78
2022-10-18T19:46:32.194Z,27.04
2022-10-18T19:48:40.737Z,26.47
2022-10-18T19:50:42.408Z,26.90
2022-10-18T19:52:44.013Z,26.65
2022-10-18T19:54:51.718Z,26.57
2022-10-18T19:56:53.389Z,26.56
2022-10-18T19:58:56.762Z,26.76
2022-10-18T20:01:06.771Z,26.59
2022-10-18T20:03:08.550Z,26.36
2022-10-18T20:05:10.615Z,26.57
2022-10-18T20:07:18.751Z,26.73
2022-10-18T20:09:21.642Z,26.77
2022-10-18T20:11:27.136Z,26.10
2022-10-18T20:13:35.750Z,26.71
2022-10-18T20:15:37.381Z,26.34
2022-10-18T20:17:39.180Z,26.20
2022-10-18T20:19:47.758Z,26.51
2022-10-18T20:21:49.351Z,26.55
2022-10-18T20:23:50.990Z,26.38
2022-10-18T20:26:07.784Z,26.37
2022-10-18T20:28:22.949Z,26.68
2022-10-18T20:30:24.579Z,26.55
2022-10-18T20:32:32.804Z,26.56
2022-10-18T20:34:34.456Z,26.17
2022-10-18T20:36:37.196Z,26.59
2022-10-18T20:38:46.783Z,26.21
2022-10-18T20:40:48.408Z,26.04
2022-10-18T20:42:51.720Z,26.05
2022-10-18T20:44:59.827Z,25.76
2022-10-18T20:47:01.463Z,26.17
2022-10-18T20:49:04.698Z,26.43
2022-10-18T20:51:14.794Z,26.79
2022-10-18T20:53:16.395Z,26.25
2022-10-18T20:55:18.878Z,26.26
2022-10-18T20:57:26.781Z,26.23
2022-10-18T20:59:28.403Z,26.08
2022-10-18T21:01:32.211Z,25.76
2022-10-18T21:03:42.782Z,25.93
2022-10-18T21:05:44.312Z,25.63
2022-10-18T21:07:45.881Z,25.77
2022-10-18T21:09:53.889Z,25.87
2022-10-18T21:11:56.198Z,25.29
2022-10-18T21:14:02.080Z,25.95
2022-10-18T21:16:11.815Z,25.91
2022-10-18T21:18:13.345Z,25.28
2022-10-18T21:20:14.981Z,25.09
2022-10-18T21:22:22.833Z,24.99
2022-10-18T21:24:25.840Z,26.15
2022-10-18T21:26:28.285Z,25.86
2022-10-18T21:28:36.843Z,26.00
2022-10-18T21:30:38.535Z,25.96
2022-10-18T21:32:40.132Z,26.04
2022-10-18T21:34:48.052Z,25.75
2022-10-18T21:36:49.736Z,26.11
2022-10-18T21:38:52.190Z,25.96
2022-10-18T21:40:59.840Z,26.15
2022-10-18T21:43:01.881Z,26.06
2022-10-18T21:45:09.837Z,25.67
2022-10-18T21:47:11.352Z,25.51
2022-10-18T21:49:14.145Z,25.67
2022-10-18T21:51:24.836Z,26.15
2022-10-18T21:53:26.381Z,25.90
2022-10-18T21:55:27.934Z,25.87
2022-10-18T21:59:42.336Z,26.18
2022-10-18T22:01:45.113Z,26.15
2022-10-18T22:03:55.855Z,25.77
2022-10-18T22:06:02.101Z,26.06
2022-10-18T22:08:04.525Z,25.23
2022-10-18T22:10:12.894Z,25.66
2022-10-18T22:12:14.737Z,25.67
2022-10-18T22:14:16.591Z,25.23
2022-10-18T22:16:24.891Z,25.60
2022-10-18T22:18:26.404Z,25.78
2022-10-18T22:20:28.213Z,24.82
2022-10-18T22:22:35.888Z,25.58
2022-10-18T22:24:37.515Z,25.16
2022-10-18T22:26:41.936Z,25.07
2022-10-18T22:40:04.974Z,25.20
2022-10-18T22:42:06.620Z,25.19
2022-10-18T22:44:09.011Z,24.12
2022-10-18T22:46:19.942Z,24.90
2022-10-18T22:48:21.480Z,24.87
2022-10-18T22:50:23.052Z,25.20
2022-10-18T22:52:31.049Z,24.58
2022-10-18T22:54:32.827Z,25.10
2022-10-18T22:56:34.431Z,25.03
2022-10-18T22:58:42.942Z,25.65
2022-10-18T23:00:44.779Z,24.92
2022-10-18T23:02:49.005Z,25.23
2022-10-18T23:04:56.960Z,25.88
2022-10-18T23:06:58.694Z,25.45
2022-10-18T23:09:02.362Z,25.68
2022-10-18T23:11:09.978Z,25.16
2022-10-18T23:13:11.577Z,25.40
2022-10-18T23:15:13.239Z,24.65
2022-10-18T23:17:20.952Z,25.12
2022-10-18T23:19:22.560Z,24.84
2022-10-18T23:21:26.165Z,24.83
2022-10-18T23:23:36.962Z,25.21
2022-10-18T23:25:38.964Z,24.40
2022-10-18T23:27:40.670Z,24.97
2022-10-18T23:29:48.959Z,24.92
2022-10-18T23:31:50.540Z,24.40
2022-10-18T23:33:54.352Z,24.65
2022-10-18T23:36:01.994Z,24.90
2022-10-18T23:38:03.595Z,24.77
2022-10-18T23:40:05.578Z,24.18
2022-10-18T23:42:13.983Z,24.16
2022-10-18T23:44:15.616Z,24.34
2022-10-18T23:46:18.266Z,24.47
2022-10-18T23:48:25.997Z,24.89
2022-10-18T23:50:27.535Z,24.49
2022-10-18T23:52:29.199Z,24.15
2022-10-18T23:54:37.018Z,24.17
